Bookmark and Share
Track history (hours):
 

Antares

Last reported at 2014-Apr-19 16:32 UTC. Time now 2014-Apr-19 17:12 UTC.
Position N 53°30' E 009°58'.

Length 79 m; draft 4.5 m.

Type: Ship. MMSI: 218777000.

NotesDate/timePositionNaut miles runAvg speedWind from/ knotsBaromVisibWave heightAir tempDewpointWater temp
2014-Apr-19 16:32N 53°30' E 009°58'0 0.0
2014-Apr-19 15:32N 53°30' E 009°58'1 0.9
2014-Apr-19 14:33N 53°31' E 009°57'2 1.7
2014-Apr-19 13:32N 53°33' E 009°56'0 0.0
2014-Apr-19 12:29N 53°33' E 009°56'0 0.0
2014-Apr-19 11:32N 53°33' E 009°56'0 0.0
2014-Apr-19 10:29N 53°33' E 009°56'0 0.0
2014-Apr-19 09:26N 53°33' E 009°56'0 0.2
2014-Apr-19 08:31N 53°32' E 009°56'2 2.3
2014-Apr-19 07:34N 53°30' E 009°57'0 0.0
2014-Apr-19 06:33N 53°30' E 009°57'0 0.0
2014-Apr-19 05:34N 53°30' E 009°57'1 0.5
2014-Apr-19 04:28N 53°30' E 009°58'0 0.0
2014-Apr-19 03:28N 53°30' E 009°58'0 0.0
2014-Apr-19 02:22N 53°30' E 009°58'0 0.0
2014-Apr-19 01:31N 53°30' E 009°58'0 0.0
2014-Apr-19 00:28N 53°30' E 009°58'0 0.0
2014-Apr-18 23:22N 53°30' E 009°58'0 0.0
2014-Apr-18 22:28N 53°30' E 009°58'1 0.7
2014-Apr-18 21:33N 53°31' E 009°57'1 1.3
2014-Apr-18 20:30N 53°32' E 009°58'0 0.0
2014-Apr-18 19:24N 53°32' E 009°58'0 0.0
2014-Apr-18 18:33N 53°32' E 009°58'0 0.0
2014-Apr-18 17:30N 53°32' E 009°58'0 0.3
2014-Apr-18 16:33N 53°32' E 009°57'10 9.6
2014-Apr-18 15:33N 53°34' E 009°41'1111.5
2014-Apr-18 14:34N 53°43' E 009°29'1313.0
2014-Apr-18 13:33N 53°53' E 009°15'3 3.3
2014-Apr-18 12:33N 53°54' E 009°10'7 6.6
2014-Apr-18 11:33N 53°59' E 009°17'3 3.2
2014-Apr-18 10:33N 54°02' E 009°18'6 6.3
2014-Apr-18 09:33N 54°08' E 009°21'9 8.7
2014-Apr-18 08:33N 54°12' E 009°34'54 6.6
2014-Apr-18 00:20N 54°36' E 010°58'8 9.9
2014-Apr-17 23:33N 54°36' E 011°12'1110.8
2014-Apr-17 22:33N 54°31' E 011°28'1110.5
2014-Apr-17 21:33N 54°24' E 011°43'1010.3
2014-Apr-17 20:33N 54°16' E 011°54'2 2.2
2014-Apr-17 19:31N 54°14' E 011°55'0 0.0
2014-Apr-17 18:25N 54°14' E 011°55'0 0.0
2014-Apr-17 17:31N 54°14' E 011°55'0 0.0
2014-Apr-17 16:28N 54°14' E 011°55'0 0.0
2014-Apr-17 15:31N 54°14' E 011°55'0 0.0
2014-Apr-17 14:25N 54°14' E 011°55'0 0.0
2014-Apr-17 13:31N 54°14' E 011°55'0 0.0
2014-Apr-17 12:33N 54°14' E 011°55'0 0.0
2014-Apr-17 11:33N 54°14' E 011°55'0 0.0
2014-Apr-17 10:33N 54°14' E 011°55'0 0.0
2014-Apr-17 09:33N 54°14' E 011°55'2 2.3
2014-Apr-17 08:33N 54°14' E 011°59'7 6.6
2014-Apr-17 07:32N 54°09' E 012°08'0 0.0
2014-Apr-17 06:17N 54°09' E 012°08'0 0.0
2014-Apr-17 05:32N 54°09' E 012°08'0 0.0
2014-Apr-17 04:32N 54°09' E 012°08'0 0.0
2014-Apr-17 03:32N 54°09' E 012°08'0 0.0
2014-Apr-17 02:29N 54°09' E 012°08'0 0.1
2014-Apr-17 01:20N 54°09' E 012°08'0 0.0
2014-Apr-17 00:32N 54°09' E 012°08'0 0.0
2014-Apr-16 23:32N 54°09' E 012°08'0 0.0
2014-Apr-16 22:32N 54°09' E 012°08'0 0.0
2014-Apr-16 21:32N 54°09' E 012°08'0 0.0
2014-Apr-16 20:29N 54°09' E 012°08'0 0.0
2014-Apr-16 19:32N 54°09' E 012°08'0 0.0
2014-Apr-16 18:29N 54°09' E 012°08'0 0.0
2014-Apr-16 17:32N 54°09' E 012°08'1 1.0
2014-Apr-16 16:32N 54°10' E 012°06'6 6.6
2014-Apr-16 15:34N 54°15' E 011°59'0 0.0
2014-Apr-16 14:31N 54°15' E 011°59'0 0.0
2014-Apr-16 13:33N 54°15' E 011°59'6 6.2
2014-Apr-16 12:33N 54°18' E 011°51'1111.0
2014-Apr-16 11:33N 54°24' E 011°35'1111.4
2014-Apr-16 10:33N 54°32' E 011°20'61 7.7
2014-Apr-16 02:33N 54°17' E 009°38'7 7.4
2014-Apr-16 01:33N 54°11' E 009°30'7 7.5
2014-Apr-16 00:33N 54°06' E 009°20'8 7.9
2014-Apr-15 23:33N 53°59' E 009°16'3 3.3
2014-Apr-15 22:34N 53°56' E 009°13'2 1.7
2014-Apr-15 21:33N 53°55' E 009°11'0 0.0
2014-Apr-15 20:33N 53°55' E 009°11'0 0.0
2014-Apr-15 19:33N 53°55' E 009°11'0 0.0
2014-Apr-15 18:33N 53°55' E 009°11'0 0.0
2014-Apr-15 17:33N 53°55' E 009°11'0 0.0
2014-Apr-15 16:33N 53°55' E 009°11'0 0.0
2014-Apr-15 15:30N 53°55' E 009°11'0 0.0
2014-Apr-15 14:30N 53°55' E 009°11'0 0.0
2014-Apr-15 12:33N 53°55' E 009°11'0 0.0
2014-Apr-15 11:30N 53°55' E 009°11'0 0.0
2014-Apr-15 10:33N 53°55' E 009°11'0 0.0
2014-Apr-15 09:33N 53°55' E 009°11'0 0.0
2014-Apr-15 08:33N 53°55' E 009°11'2 1.8
2014-Apr-15 07:34N 53°54' E 009°09'1 0.6
2014-Apr-15 06:34N 53°53' E 009°09'3 2.8
2014-Apr-15 05:34N 53°53' E 009°13'17 8.3
2014-Apr-15 03:31N 53°39' E 009°31'0 0.0
2014-Apr-15 00:31N 53°39' E 009°31'0 0.0
2014-Apr-14 23:31N 53°39' E 009°31'0 0.0
2014-Apr-14 20:34N 53°39' E 009°31'0 0.0
2014-Apr-14 19:34N 53°39' E 009°31'0 0.0
2014-Apr-14 18:34N 53°39' E 009°31'0 0.0
2014-Apr-14 17:34N 53°39' E 009°31'2 1.2
2014-Apr-14 15:33N 53°37' E 009°33'10 9.9
2014-Apr-14 14:34N 53°33' E 009°48'4 0.6
2014-Apr-14 08:31N 53°32' E 009°54'3 0.3
2014-Apr-13 22:32N 53°30' E 009°58'0 0.0
2014-Apr-13 21:32N 53°30' E 009°58'0 0.0
2014-Apr-13 20:32N 53°30' E 009°58'0 0.0
2014-Apr-13 19:32N 53°30' E 009°58'0 0.0
2014-Apr-13 18:32N 53°30' E 009°58'0 0.0
2014-Apr-13 17:29N 53°30' E 009°58'0 0.0
2014-Apr-13 16:32N 53°30' E 009°58'0 0.2
2014-Apr-13 15:32N 53°30' E 009°58'2 1.6
2014-Apr-13 14:34N 53°32' E 009°58'0 0.0
2014-Apr-13 13:34N 53°32' E 009°58'0 0.0
2014-Apr-13 12:31N 53°32' E 009°58'0 0.0
2014-Apr-13 11:25N 53°32' E 009°58'0 0.0
2014-Apr-13 10:28N 53°32' E 009°58'0 0.0
2014-Apr-13 09:33N 53°32' E 009°58'0 0.0
2014-Apr-13 08:33N 53°32' E 009°58'0 0.0
2014-Apr-13 07:33N 53°32' E 009°58'0 0.0
2014-Apr-13 06:33N 53°32' E 009°58'0 0.0
2014-Apr-13 05:33N 53°32' E 009°58'0 0.0
2014-Apr-13 04:33N 53°32' E 009°58'0 0.0
2014-Apr-13 03:33N 53°32' E 009°58'0 0.0
2014-Apr-13 02:33N 53°32' E 009°58'0 0.0
2014-Apr-13 01:33N 53°32' E 009°58'0 0.0
2014-Apr-13 00:33N 53°32' E 009°58'0 0.0
2014-Apr-12 23:33N 53°32' E 009°58'4 4.0
2014-Apr-12 22:33N 53°33' E 009°51'1212.3
2014-Apr-12 21:33N 53°38' E 009°32'1313.0
2014-Apr-12 20:33N 53°49' E 009°22'1211.9
2014-Apr-12 19:33N 53°52' E 009°02'1110.8
2014-Apr-12 18:33N 53°52' E 008°44'1110.5
2014-Apr-12 17:33N 53°58' E 008°30'1110.9
2014-Apr-12 16:33N 53°59' E 008°11'8 7.7
2014-Apr-12 15:33N 53°52' E 008°07'1211.7
2014-Apr-12 14:34N 53°43' E 008°19'10 9.7
2014-Apr-12 13:30N 53°35' E 008°31'0 0.0
2014-Apr-12 12:33N 53°35' E 008°31'0 0.0
2014-Apr-12 11:34N 53°35' E 008°31'0 0.0
2014-Apr-12 10:33N 53°35' E 008°31'0 0.0
2014-Apr-12 09:30N 53°35' E 008°31'0 0.0
2014-Apr-12 08:33N 53°35' E 008°31'0 0.0
2014-Apr-12 07:34N 53°35' E 008°31'0 0.0
2014-Apr-12 06:33N 53°35' E 008°31'0 0.0
2014-Apr-12 05:33N 53°35' E 008°31'0 0.0
2014-Apr-12 04:33N 53°35' E 008°31'3 2.7
2014-Apr-12 03:33N 53°37' E 008°28'6 5.8
2014-Apr-12 02:33N 53°41' E 008°21'8 7.6
2014-Apr-12 01:33N 53°46' E 008°11'7 7.5
2014-Apr-12 00:33N 53°51' E 008°01'8 8.4
2014-Apr-11 23:33N 53°59' E 008°03'1110.7
2014-Apr-11 22:33N 53°60' E 008°21'1110.5
2014-Apr-11 21:33N 53°57' E 008°38'8 8.2
2014-Apr-11 20:33N 53°51' E 008°47'8 7.6
2014-Apr-11 19:33N 53°51' E 008°60'9 9.0
2014-Apr-11 18:33N 53°53' E 009°15'1111.0
2014-Apr-11 17:33N 53°44' E 009°27'1211.7
2014-Apr-11 16:33N 53°35' E 009°38'1111.2
2014-Apr-11 15:33N 53°32' E 009°56'2 1.6
2014-Apr-11 14:33N 53°30' E 009°58'0 0.0
2014-Apr-11 13:33N 53°30' E 009°58'0 0.0
2014-Apr-11 12:27N 53°30' E 009°58'0 0.0
2014-Apr-11 11:33N 53°30' E 009°58'0 0.0
2014-Apr-11 10:33N 53°30' E 009°58'0 0.0
2014-Apr-11 09:21N 53°30' E 009°58'1 0.7
2014-Apr-11 08:30N 53°30' E 009°57'0 0.0
2014-Apr-11 07:30N 53°30' E 009°57'0 0.0
2014-Apr-11 06:33N 53°30' E 009°57'0 0.0
2014-Apr-11 05:33N 53°30' E 009°57'0 0.0
2014-Apr-11 04:33N 53°30' E 009°57'0 0.0
2014-Apr-11 03:33N 53°30' E 009°57'4 4.0
2014-Apr-11 02:33N 53°33' E 009°52'9 8.7
2014-Apr-11 01:33N 53°35' E 009°37'10 9.5
2014-Apr-11 00:33N 53°43' E 009°29'1010.2
2014-Apr-10 23:33N 53°51' E 009°19'1110.6
2014-Apr-10 22:33N 53°51' E 009°01'1110.8
2014-Apr-10 21:33N 53°53' E 008°43'1111.1
2014-Apr-10 20:33N 53°59' E 008°27'1110.8
2014-Apr-10 19:33N 53°57' E 008°08'10 9.6
2014-Apr-10 18:33N 53°48' E 008°09'9 9.3
2014-Apr-10 17:33N 53°42' E 008°21'9 9.1
2014-Apr-10 16:33N 53°35' E 008°32'4 3.8
2014-Apr-10 15:31N 53°31' E 008°32'0 0.0
2014-Apr-10 14:31N 53°31' E 008°32'0 0.0
2014-Apr-10 13:31N 53°31' E 008°32'0 0.0
2014-Apr-10 12:31N 53°31' E 008°32'0 0.0
2014-Apr-10 11:31N 53°31' E 008°32'0 0.0
2014-Apr-10 10:31N 53°31' E 008°32'0 0.0
2014-Apr-10 09:31N 53°31' E 008°32'2 2.0
2014-Apr-10 08:33N 53°33' E 008°33'1111.4
2014-Apr-10 07:33N 53°41' E 008°21'1211.7
2014-Apr-10 06:33N 53°49' E 008°06'10 9.6
2014-Apr-10 05:33N 53°58' E 007°58'8 7.9
2014-Apr-10 04:33N 54°00' E 008°11'9 8.9
2014-Apr-10 03:34N 53°59' E 008°26'10 9.7
2014-Apr-10 02:33N 53°55' E 008°41'1110.7
2014-Apr-10 01:33N 53°51' E 008°58'1211.8
2014-Apr-10 00:34N 53°52' E 009°18'1211.8
2014-Apr-09 23:33N 53°42' E 009°29'1010.2
2014-Apr-09 22:33N 53°34' E 009°40'9 9.3
2014-Apr-09 21:33N 53°33' E 009°55'3 3.2
2014-Apr-09 20:33N 53°32' E 010°00'0 0.0
2014-Apr-09 19:33N 53°32' E 010°00'0 0.0
2014-Apr-09 18:33N 53°32' E 010°00'0 0.0
2014-Apr-09 17:33N 53°32' E 010°00'0 0.0
2014-Apr-09 16:33N 53°32' E 010°00'  

Dump ship's entire track history

sailing weather and tide predictions

Antares — DFJQ — position and weather